Time;durP1;ratioP1;P1;durP2;ratioP2;P2;SDS_P1;SDS_P2;PMS_P1;PMS_P2;Temp;Humidity;BMP_temperature;BMP_pressure;BME280_temperature;BME280_humidity;BME280_pressure;Samples;Min_cycle;Max_cycle;Signal;HPM_P1;HPM_P2
2023/08/16 00:01:21;;;;;;;13.52;10.20;;;;;;;;;;5057536;28;20021;-70
2023/08/16 00:03:47;;;;;;;14.90;10.07;;;;;;;;;;5057557;28;20458;-69
2023/08/16 00:06:14;;;;;;;11.95;9.57;;;;;;;;;;5057231;28;20082;-69
2023/08/16 00:08:40;;;;;;;12.80;9.70;;;;;;;;;;5057185;28;20064;-69
2023/08/16 00:11:07;;;;;;;16.73;12.07;;;;;;;;;;5057068;28;20040;-69
2023/08/16 00:13:33;;;;;;;14.27;11.50;;;;;;;;;;5056046;28;20029;-69
2023/08/16 00:16:00;;;;;;;12.65;11.23;;;;;;;;;;5057046;28;20114;-69
2023/08/16 00:18:26;;;;;;;13.95;9.85;;;;;;;;;;5057049;28;20031;-69
2023/08/16 00:20:52;;;;;;;17.42;11.68;;;;;;;;;;5056949;28;20029;-69
2023/08/16 00:23:18;;;;;;;14.32;11.38;;;;;;;;;;5056936;28;20031;-69
2023/08/16 00:25:44;;;;;;;14.55;11.23;;;;;;;;;;5056851;28;20101;-69
2023/08/16 00:28:10;;;;;;;15.65;11.32;;;;;;;;;;5056320;28;20382;-69
2023/08/16 00:30:36;;;;;;;17.88;11.75;;;;;;;;;;5056830;28;20025;-69
2023/08/16 00:33:02;;;;;;;13.27;10.82;;;;;;;;;;5056680;28;20029;-69
2023/08/16 00:35:28;;;;;;;13.52;11.77;;;;;;;;;;5056429;28;20017;-69
2023/08/16 00:37:58;;;;;;;16.80;11.63;;;;;;;;;;5056922;28;20082;-69
2023/08/16 00:40:24;;;;;;;15.38;11.20;;;18.90;99.90;;;;;;5056650;28;20462;-69
2023/08/16 00:42:49;;;;;;;14.35;11.25;;;18.80;99.90;;;;;;5056858;28;20025;-71
2023/08/16 00:45:15;;;;;;;17.45;10.50;;;18.80;99.90;;;;;;5056844;28;20082;-69
2023/08/16 00:47:44;;;;;;;15.77;11.52;;;;;;;;;;5056771;28;20032;-70
2023/08/16 00:50:10;;;;;;;13.32;10.75;;;;;;;;;;5056440;28;20064;-69
2023/08/16 00:52:36;;;;;;;12.50;10.75;;;18.70;99.90;;;;;;5055512;28;20461;-70
2023/08/16 00:55:03;;;;;;;17.08;12.57;;;18.70;99.90;;;;;;5055113;28;20025;-70
2023/08/16 00:57:30;;;;;;;18.35;14.02;;;18.60;99.90;;;;;;5056531;28;20370;-70
2023/08/16 00:59:56;;;;;;;21.02;13.77;;;18.60;99.90;;;;;;5056514;28;20025;-69
2023/08/16 01:02:23;;;;;;;14.55;12.77;;;18.50;99.90;;;;;;5055822;28;20025;-70
2023/08/16 01:04:49;;;;;;;21.85;12.75;;;18.60;99.90;;;;;;5056365;28;20025;-70
2023/08/16 01:07:15;;;;;;;14.00;11.55;;;18.50;99.90;;;;;;5056087;28;20029;-69
2023/08/16 01:09:40;;;;;;;16.48;13.00;;;18.50;99.90;;;;;;5056066;28;20033;-70
2023/08/16 01:12:18;;;;;;;16.00;12.93;;;18.50;99.90;;;;;;5055986;28;20135;-70
2023/08/16 01:15:00;;;;;;;21.05;13.57;;;18.50;99.90;;;;;;5055514;28;20176;-70
2023/08/16 01:17:29;;;;;;;17.33;12.73;;;18.40;99.90;;;;;;5056296;28;20155;-70
2023/08/16 01:19:57;;;;;;;16.85;12.85;;;18.40;99.90;;;;;;5055627;28;20459;-70
2023/08/16 01:23:03;;;;;;;18.33;12.38;;;18.30;99.90;;;;;;5055607;28;20078;-70
2023/08/16 01:25:39;;;;;;;22.90;14.90;;;18.30;99.90;;;;;;5055382;28;20024;-70
2023/08/16 01:28:05;;;;;;;20.00;14.15;;;18.30;99.90;;;;;;5055999;28;20086;-70
2023/08/16 01:30:31;;;;;;;21.65;14.27;;;18.30;99.90;;;;;;5055679;28;20032;-70
2023/08/16 01:33:13;;;;;;;17.52;13.73;;;18.20;99.90;;;;;;5055832;28;20091;-70
2023/08/16 01:35:39;;;;;;;17.52;14.23;;;18.30;99.90;;;;;;5055357;28;20032;-70
2023/08/16 01:38:07;;;;;;;16.85;13.70;;;18.20;99.90;;;;;;5055111;28;20029;-70
2023/08/16 01:40:47;;;;;;;15.35;12.75;;;18.10;99.90;;;;;;5055738;28;20025;-70
2023/08/16 01:43:15;;;;;;;17.70;14.23;;;18.10;99.90;;;;;;5055339;28;20028;-70
2023/08/16 01:45:41;;;;;;;24.58;15.98;;;18.00;99.90;;;;;;5055659;28;20034;-70
2023/08/16 01:48:08;;;;;;;23.77;15.95;;;18.00;99.90;;;;;;5055096;28;20029;-70
2023/08/16 01:50:34;;;;;;;26.30;17.35;;;17.90;99.90;;;;;;5055509;28;20021;-70
2023/08/16 01:53:00;;;;;;;27.80;21.23;;;17.90;99.90;;;;;;5054236;28;20080;-70
2023/08/16 01:55:25;;;;;;;26.80;21.38;;;17.90;99.90;;;;;;5054770;28;20466;-70
2023/08/16 01:57:51;;;;;;;29.58;22.17;;;17.90;99.90;;;;;;5055429;28;20024;-70
2023/08/16 02:00:17;;;;;;;31.48;21.23;;;17.90;99.90;;;;;;5055036;28;20114;-70
2023/08/16 02:02:43;;;;;;;26.15;20.98;;;17.90;99.90;;;;;;5054821;28;20159;-70
2023/08/16 02:05:08;;;;;;;30.05;21.42;;;17.90;99.90;;;;;;5055179;28;20032;-70
2023/08/16 02:07:34;;;;;;;32.58;23.13;;;17.90;99.90;;;;;;5054740;28;20029;-70
2023/08/16 02:09:59;;;;;;;32.92;23.80;;;17.90;99.90;;;;;;5055230;28;20112;-70
2023/08/16 02:12:25;;;;;;;32.25;23.63;;;17.90;99.90;;;;;;5054592;28;20036;-70
2023/08/16 02:14:51;;;;;;;35.92;23.10;;;17.80;99.90;;;;;;5053931;28;20035;-70
2023/08/16 02:17:16;;;;;;;30.30;22.52;;;17.90;99.90;;;;;;5054598;28;20024;-70
2023/08/16 02:19:42;;;;;;;28.73;22.60;;;17.80;99.90;;;;;;5055014;28;20083;-70
2023/08/16 02:22:07;;;;;;;31.55;24.05;;;17.80;99.90;;;;;;5054581;28;20359;-70
2023/08/16 02:24:33;;;;;;;31.73;22.05;;;17.70;99.90;;;;;;5054913;28;20036;-70
2023/08/16 02:26:59;;;;;;;29.50;21.70;;;17.70;99.90;;;;;;5054342;28;20386;-70
2023/08/16 02:29:25;;;;;;;27.33;22.75;;;17.70;99.90;;;;;;5054820;28;20033;-70
2023/08/16 02:31:50;;;;;;;32.10;22.50;;;17.60;99.90;;;;;;5053979;28;20372;-70
2023/08/16 02:34:16;;;;;;;30.60;22.40;;;17.60;99.90;;;;;;5053636;28;20562;-70
2023/08/16 02:36:41;;;;;;;26.35;20.55;;;17.60;99.90;;;;;;5054722;28;20078;-70
2023/08/16 02:39:08;;;;;;;27.98;21.15;;;17.50;99.90;;;;;;5054221;28;20025;-70
2023/08/16 02:41:34;;;;;;;30.27;21.35;;;17.50;99.90;;;;;;5054661;28;20032;-70
2023/08/16 02:44:00;;;;;;;28.33;21.02;;;17.50;99.90;;;;;;5054581;28;20029;-70
2023/08/16 02:46:26;;;;;;;22.90;18.35;;;17.40;99.90;;;;;;5053817;28;20158;-70
2023/08/16 02:48:51;;;;;;;21.80;17.45;;;17.40;99.90;;;;;;5054290;28;20032;-70
2023/08/16 02:51:17;;;;;;;28.27;20.55;;;17.30;99.90;;;;;;5054030;28;20062;-70
2023/08/16 02:53:42;;;;;;;24.80;18.65;;;17.40;99.90;;;;;;5053518;28;20441;-69
2023/08/16 02:56:08;;;;;;;27.00;21.52;;;17.30;99.90;;;;;;5054435;28;20071;-70
2023/08/16 02:58:34;;;;;;;26.58;21.45;;;17.30;99.90;;;;;;5054408;28;20028;-70
2023/08/16 03:00:59;;;;;;;28.88;21.92;;;17.30;99.90;;;;;;5053791;28;20083;-70
2023/08/16 03:03:25;;;;;;;23.60;20.83;;;17.20;99.90;;;;;;5053752;28;20036;-70
2023/08/16 03:05:50;;;;;;;28.00;21.95;;;17.20;99.90;;;;;;5054203;28;20414;-70
2023/08/16 03:08:16;;;;;;;33.78;23.45;;;17.20;99.90;;;;;;5054272;28;20417;-70
2023/08/16 03:10:42;;;;;;;31.85;23.75;;;17.20;99.90;;;;;;5053755;28;20031;-70
2023/08/16 03:13:08;;;;;;;32.33;23.92;;;17.20;99.90;;;;;;5054231;28;20070;-70
2023/08/16 03:15:34;;;;;;;30.17;22.38;;;17.20;99.90;;;;;;5054211;28;20037;-70
2023/08/16 03:18:00;;;;;;;33.78;23.15;;;17.20;99.90;;;;;;5053010;28;20021;-70
2023/08/16 03:20:25;;;;;;;31.92;23.50;;;17.20;99.90;;;;;;5054132;28;20036;-70
2023/08/16 03:22:51;;;;;;;30.58;22.23;;;17.20;99.90;;;;;;5053830;28;20375;-70
2023/08/16 03:25:17;;;;;;;32.85;22.70;;;17.10;99.90;;;;;;5053078;28;20104;-70
2023/08/16 03:27:43;;;;;;;31.95;23.38;;;17.10;99.90;;;;;;5053746;28;20475;-70
2023/08/16 03:30:10;;;;;;;34.03;22.15;;;17.10;99.90;;;;;;5053868;28;20107;-70
2023/08/16 03:32:35;;;;;;;29.67;22.65;;;17.10;99.90;;;;;;5054029;28;20025;-70
2023/08/16 03:35:03;;;;;;;35.08;24.50;;;17.10;99.90;;;;;;5053719;28;20542;-70
2023/08/16 03:37:28;;;;;;;37.17;26.70;;;17.10;99.90;;;;;;5053775;28;20052;-70
2023/08/16 03:39:54;;;;;;;34.15;24.58;;;17.10;99.90;;;;;;5052890;28;20052;-70
2023/08/16 03:42:20;;;;;;;36.22;26.25;;;17.10;99.90;;;;;;5053811;28;20029;-70
2023/08/16 03:44:45;;;;;;;32.15;23.60;;;17.10;99.90;;;;;;5053622;28;20036;-70
2023/08/16 03:47:11;;;;;;;33.17;23.95;;;17.10;99.90;;;;;;5053512;28;20029;-70
2023/08/16 03:49:37;;;;;;;33.65;24.08;;;17.10;99.90;;;;;;5053592;28;20040;-70
2023/08/16 03:52:03;;;;;;;34.03;24.50;;;17.10;99.90;;;;;;5052964;28;20064;-70
2023/08/16 03:54:29;;;;;;;31.42;24.15;;;17.10;99.90;;;;;;5053564;28;20033;-70
2023/08/16 03:56:56;;;;;;;32.05;24.75;;;17.00;99.90;;;;;;5053825;28;20477;-70
2023/08/16 03:59:22;;;;;;;36.72;25.23;;;17.00;99.90;;;;;;5053211;28;20459;-70
2023/08/16 04:01:48;;;;;;;37.13;25.98;;;17.00;99.90;;;;;;5053835;28;20029;-70
2023/08/16 04:04:13;;;;;;;35.53;24.98;;;17.00;99.90;;;;;;5053345;28;20179;-70
2023/08/16 04:06:39;;;;;;;34.05;23.25;;;17.00;99.90;;;;;;5053236;28;20157;-70
2023/08/16 04:09:06;;;;;;;37.65;25.17;;;16.90;99.90;;;;;;5053661;28;20059;-70
2023/08/16 04:11:31;;;;;;;35.63;25.27;;;17.00;99.90;;;;;;5053419;28;20028;-70
2023/08/16 04:13:57;;;;;;;37.92;26.10;;;17.00;99.90;;;;;;5053260;28;20033;-70
2023/08/16 04:16:23;;;;;;;37.00;25.83;;;17.00;99.90;;;;;;5053655;28;20063;-70
2023/08/16 04:18:50;;;;;;;37.13;26.27;;;17.10;99.90;;;;;;5053431;28;20493;-70
2023/08/16 04:21:16;;;;;;;32.35;23.88;;;17.00;99.90;;;;;;5053323;28;20017;-70
2023/08/16 04:23:41;;;;;;;36.95;26.00;;;17.10;99.90;;;;;;5053478;28;20115;-70
2023/08/16 04:26:07;;;;;;;34.47;24.65;;;17.00;99.90;;;;;;5053555;28;20036;-70
2023/08/16 04:28:33;;;;;;;32.50;25.58;;;17.00;99.90;;;;;;5053400;28;20108;-70
2023/08/16 04:30:59;;;;;;;36.17;24.38;;;17.00;99.90;;;;;;5057125;28;20055;-70
2023/08/16 04:33:25;;;;;;;31.23;22.25;;;17.10;99.90;;;;;;5056730;28;20040;-70
2023/08/16 04:35:51;;;;;;;28.85;20.92;;;17.10;99.90;;;;;;5056619;28;20025;-70
2023/08/16 04:38:16;;;;;;;32.50;22.40;;;17.10;99.90;;;;;;5055939;28;20124;-70
2023/08/16 04:40:42;;;;;;;29.77;23.23;;;17.10;99.90;;;;;;5056855;28;20025;-70
2023/08/16 04:43:08;;;;;;;30.45;21.77;;;17.10;99.90;;;;;;5056828;28;20032;-70
2023/08/16 04:45:33;;;;;;;30.85;22.73;;;17.10;99.90;;;;;;5056744;28;20108;-70
2023/08/16 04:47:59;;;;;;;33.15;23.25;;;17.10;99.90;;;;;;5056224;28;20082;-70
2023/08/16 04:50:24;;;;;;;34.72;23.50;;;17.20;99.90;;;;;;5056436;28;20075;-70
2023/08/16 04:52:50;;;;;;;31.85;23.23;;;17.20;99.90;;;;;;5055549;28;20076;-70
2023/08/16 04:55:16;;;;;;;28.52;21.65;;;17.20;99.90;;;;;;5056070;28;20029;-70
2023/08/16 04:57:41;;;;;;;30.25;23.63;;;17.30;99.90;;;;;;5056571;28;20021;-70
2023/08/16 05:00:09;;;;;;;35.42;24.27;;;17.40;99.90;;;;;;5056169;28;20033;-70
2023/08/16 05:02:34;;;;;;;33.33;23.10;;;17.50;99.90;;;;;;5056473;28;20029;-70
2023/08/16 05:05:00;;;;;;;34.05;24.00;;;17.60;99.90;;;;;;5056407;28;20086;-70
2023/08/16 05:07:25;;;;;;;28.42;22.17;;;17.70;99.90;;;;;;5055818;28;20063;-70
2023/08/16 05:09:51;;;;;;;31.10;22.33;;;17.80;99.90;;;;;;5056090;28;20032;-70
2023/08/16 05:12:17;;;;;;;27.35;21.65;;;18.10;99.90;;;;;;5056004;28;20121;-70
2023/08/16 05:14:43;;;;;;;29.55;22.95;;;18.30;99.90;;;;;;5055123;28;20025;-70
2023/08/16 05:17:08;;;;;;;25.70;20.10;;;18.40;99.90;;;;;;5055928;28;20104;-70
2023/08/16 05:19:34;;;;;;;26.65;20.35;;;18.60;99.90;;;;;;5055750;28;20029;-70
2023/08/16 05:22:00;;;;;;;27.05;20.30;;;18.70;99.90;;;;;;5056054;28;20020;-70
2023/08/16 05:24:25;;;;;;;25.45;19.35;;;18.80;99.90;;;;;;5056044;28;20485;-70
2023/08/16 05:26:51;;;;;;;25.63;18.67;;;18.80;99.90;;;;;;5055978;28;20039;-70
2023/08/16 05:29:17;;;;;;;28.17;19.10;;;18.90;99.90;;;;;;5055451;28;20091;-70
2023/08/16 05:31:43;;;;;;;20.35;16.38;;;19.00;99.90;;;;;;5055903;28;20379;-70
2023/08/16 05:34:09;;;;;;;31.45;19.15;;;19.10;99.90;;;;;;5055060;28;20032;-70
2023/08/16 05:36:46;;;;;;;22.75;17.50;;;19.10;99.90;;;;;;5055287;28;20169;-70
2023/08/16 05:39:12;;;;;;;28.10;18.08;;;19.20;99.90;;;;;;5055425;28;20025;-70
2023/08/16 05:41:37;;;;;;;21.77;18.30;;;19.20;99.90;;;;;;5054696;28;20025;-70
2023/08/16 05:44:03;;;;;;;28.38;18.98;;;19.40;99.90;;;;;;5055158;28;20025;-70
2023/08/16 05:46:29;;;;;;;22.92;18.48;;;19.50;99.90;;;;;;5055628;28;20032;-70
2023/08/16 05:48:55;;;;;;;25.95;17.98;;;19.70;99.90;;;;;;5055353;28;20088;-70
2023/08/16 05:51:20;;;;;;;22.58;17.25;;;19.90;99.90;;;;;;5054584;28;20044;-70
2023/08/16 05:53:46;;;;;;;26.85;17.48;;;20.30;99.90;;;;;;5054809;28;20029;-70
2023/08/16 05:56:12;;;;;;;21.67;16.90;;;20.50;99.90;;;;;;5055365;28;20391;-70
2023/08/16 05:58:37;;;;;;;21.48;16.45;;;20.60;99.90;;;;;;5054891;28;20031;-70
2023/08/16 06:01:03;;;;;;;25.08;17.00;;;20.60;99.90;;;;;;5054801;28;20053;-70
2023/08/16 06:03:28;;;;;;;27.25;16.83;;;20.70;99.90;;;;;;5055215;28;20466;-70
2023/08/16 06:05:54;;;;;;;20.00;15.15;;;21.60;99.90;;;;;;5054805;28;20021;-70
2023/08/16 06:08:19;;;;;;;18.65;15.73;;;21.80;79.10;;;;;;5054043;28;20032;-70
2023/08/16 06:10:45;;;;;;;20.75;15.10;;;21.70;76.50;;;;;;5054431;28;20391;-70
2023/08/16 06:13:11;;;;;;;18.48;14.80;;;21.70;94.00;;;;;;5055073;28;20021;-70
2023/08/16 06:15:36;;;;;;;17.92;13.25;;;22.30;79.90;;;;;;5054024;28;20402;-70
2023/08/16 06:18:02;;;;;;;21.88;12.18;;;23.00;1.00;;;;;;5054303;28;20021;-70
2023/08/16 06:20:28;;;;;;;19.95;12.32;;;24.40;1.00;;;;;;5054264;28;20028;-70
2023/08/16 06:22:53;;;;;;;16.92;12.00;;;24.50;1.00;;;;;;5072681;28;20033;-70
2023/08/16 06:25:19;;;;;;;13.27;11.90;;;24.90;99.90;;;;;;5073936;28;20039;-70
2023/08/16 06:27:46;;;;;;;19.38;12.68;;;24.60;1.00;;;;;;5074672;28;20037;-70
2023/08/16 06:30:12;;;;;;;19.60;14.18;;;24.30;1.00;;;;;;5074193;28;20028;-70
2023/08/16 06:32:38;;;;;;;18.48;13.82;;;23.40;1.00;;;;;;5073404;28;20031;-70
2023/08/16 06:35:05;;;;;;;21.65;13.57;;;22.60;1.00;;;;;;5074322;28;20028;-70
2023/08/16 06:37:31;;;;;;;21.70;15.05;;;22.00;17.20;;;;;;5073471;28;20535;-70
2023/08/16 06:39:56;;;;;;;18.23;14.68;;;21.50;59.90;;;;;;5073414;28;20648;-70
2023/08/16 06:42:22;;;;;;;23.52;16.38;;;21.30;90.30;;;;;;5073482;28;20055;-70
2023/08/16 06:44:48;;;;;;;17.58;15.70;;;21.00;95.10;;;;;;5072744;28;20064;-70
2023/08/16 06:47:13;;;;;;;25.20;15.98;;;20.80;99.90;;;;;;5073359;28;20371;-70
2023/08/16 06:49:39;;;;;;;19.35;16.02;;;20.70;99.90;;;;;;5073797;28;20028;-70
2023/08/16 06:52:05;;;;;;;22.75;17.45;;;20.60;99.90;;;;;;5072574;28;20071;-70
2023/08/16 06:54:30;;;;;;;21.85;17.48;;;20.50;99.90;;;;;;5074181;28;20123;-70
2023/08/16 06:56:57;;;;;;;25.92;18.08;;;20.40;99.90;;;;;;5073628;28;20035;-70
2023/08/16 06:59:24;;;;;;;24.23;17.73;;;20.40;99.90;;;;;;5073511;28;20029;-70
2023/08/16 07:01:50;;;;;;;29.50;18.33;;;20.40;99.90;;;;;;5073308;28;20029;-69
2023/08/16 07:04:16;;;;;;;25.48;17.60;;;20.40;99.90;;;;;;5073677;28;20042;-70
2023/08/16 07:06:41;;;;;;;23.33;16.27;;;20.30;99.90;;;;;;5072653;28;20032;-70
2023/08/16 07:09:07;;;;;;;23.75;17.25;;;20.40;99.90;;;;;;5073678;28;20036;-69
2023/08/16 07:11:33;;;;;;;20.02;17.17;;;20.40;99.90;;;;;;5073147;28;20094;-70
2023/08/16 07:14:00;;;;;;;21.45;16.67;;;20.50;99.90;;;;;;5073533;28;20024;-70
2023/08/16 07:16:25;;;;;;;22.48;16.42;;;20.70;99.90;;;;;;5073750;28;20048;-70
2023/08/16 07:18:51;;;;;;;21.85;16.85;;;20.80;99.90;;;;;;5073082;28;20059;-70
2023/08/16 07:21:17;;;;;;;21.13;15.52;;;20.60;99.90;;;;;;5073059;28;20040;-70
2023/08/16 07:23:44;;;;;;;24.23;17.00;;;20.50;99.90;;;;;;5073357;28;20033;-70
2023/08/16 07:26:10;;;;;;;20.50;16.02;;;20.40;99.90;;;;;;5073238;28;20145;-70
2023/08/16 07:28:36;;;;;;;19.45;16.20;;;20.20;99.90;;;;;;5073553;28;20483;-70
2023/08/16 07:31:02;;;;;;;19.98;15.52;;;20.20;99.90;;;;;;5073982;28;20064;-70
2023/08/16 07:33:30;;;;;;;21.38;15.80;;;20.30;99.90;;;;;;5072912;28;20044;-70
2023/08/16 07:36:01;;;;;;;22.92;15.25;;;20.30;99.90;;;;;;5072877;28;20089;-70
2023/08/16 07:38:28;;;;;;;17.35;15.15;;;20.20;99.90;;;;;;5072024;28;20082;-70
2023/08/16 07:40:54;;;;;;;19.13;15.20;;;20.20;99.90;;;;;;5073579;28;20028;-70
2023/08/16 07:43:19;;;;;;;20.13;14.48;;;20.20;99.90;;;;;;5073026;28;20024;-69
2023/08/16 07:45:45;;;;;;;19.15;14.65;;;20.10;99.90;;;;;;5073162;28;20032;-69
2023/08/16 07:48:10;;;;;;;19.60;14.55;;;20.10;99.90;;;;;;5073098;28;20170;-69
2023/08/16 07:50:36;;;;;;;15.52;13.65;;;20.00;99.90;;;;;;5073240;28;20313;-69
2023/08/16 07:53:02;;;;;;;23.02;15.00;;;20.00;99.90;;;;;;5072401;28;20048;-69
2023/08/16 07:55:32;;;;;;;18.38;13.82;;;20.00;99.90;;;;;;5072961;28;20165;-69
2023/08/16 07:57:57;;;;;;;18.38;15.02;;;20.00;99.90;;;;;;5073208;28;20050;-69
2023/08/16 08:00:23;;;;;;;21.13;13.50;;;20.10;99.90;;;;;;5073761;28;20031;-69
2023/08/16 08:02:49;;;;;;;14.63;12.32;;;20.30;99.90;;;;;;5073661;28;20052;-70
2023/08/16 08:05:15;;;;;;;15.90;12.32;;;20.40;99.90;;;;;;5076608;28;20592;-69
2023/08/16 08:07:40;;;;;;;15.75;12.27;;;20.50;99.90;;;;;;5077164;28;20484;-69
2023/08/16 08:10:07;;;;;;;18.80;13.75;;;20.50;99.90;;;;;;5076242;28;20085;-69
2023/08/16 08:12:32;;;;;;;19.40;13.52;;;20.20;99.90;;;;;;5077067;28;20496;-69
2023/08/16 08:14:58;;;;;;;16.45;12.60;;;20.20;99.90;;;;;;5076316;28;20107;-69
2023/08/16 08:17:24;;;;;;;19.20;12.23;;;20.10;99.90;;;;;;5077175;28;20024;-69
2023/08/16 08:19:50;;;;;;;18.40;12.05;;;20.20;99.90;;;;;;5076910;28;20475;-69
2023/08/16 08:22:15;;;;;;;16.17;12.10;;;20.30;99.90;;;;;;5077436;28;20025;-69
2023/08/16 08:24:41;;;;;;;18.38;11.65;;;20.30;99.90;;;;;;5076847;28;20036;-69
2023/08/16 08:27:07;;;;;;;19.23;11.68;;;20.30;99.90;;;;;;5076740;28;20032;-69
2023/08/16 08:29:32;;;;;;;17.50;10.63;;;20.30;99.90;;;;;;5076628;28;20035;-69
2023/08/16 08:31:58;;;;;;;14.05;8.90;;;20.30;99.90;;;;;;5076915;28;20029;-69
2023/08/16 08:34:26;;;;;;;14.95;7.88;;;20.40;99.90;;;;;;5076475;28;20021;-69
2023/08/16 08:36:52;;;;;;;13.65;7.63;;;20.40;99.90;;;;;;5076225;28;20023;-69
2023/08/16 08:39:19;;;;;;;11.07;7.40;;;20.30;99.90;;;;;;5075544;28;20037;-69
2023/08/16 08:41:48;;;;;;;13.65;6.85;;;20.30;99.90;;;;;;5076011;28;20082;-70
2023/08/16 08:44:16;;;;;;;11.70;7.18;;;20.40;99.90;;;;;;5075689;28;20039;-69
2023/08/16 08:46:43;;;;;;;12.98;7.20;;;20.30;99.90;;;;;;5076200;28;20029;-69
2023/08/16 08:49:09;;;;;;;14.85;6.95;;;20.40;99.90;;;;;;5076540;28;20107;-69
2023/08/16 08:51:36;;;;;;;10.38;6.15;;;20.20;99.90;;;;;;5075607;28;20044;-70
2023/08/16 08:54:02;;;;;;;8.50;6.18;;;20.20;99.90;;;;;;5076281;28;20076;-69
2023/08/16 08:56:30;;;;;;;13.18;6.88;;;20.30;99.90;;;;;;5075687;28;20486;-69
2023/08/16 08:58:56;;;;;;;9.82;5.55;;;20.50;99.90;;;;;;5076101;28;20029;-69
2023/08/16 09:01:24;;;;;;;9.20;5.65;;;20.60;99.90;;;;;;5076043;28;20054;-69
2023/08/16 09:03:52;;;;;;;13.70;6.72;;;20.70;99.90;;;;;;5075353;28;20422;-69
2023/08/16 09:06:18;;;;;;;9.90;5.80;;;20.50;99.90;;;;;;5076065;28;20033;-69
2023/08/16 09:08:45;;;;;;;10.32;5.53;;;20.80;99.90;;;;;;5076225;28;20043;-70
2023/08/16 09:11:13;;;;;;;13.10;6.70;;;20.60;99.90;;;;;;5075526;28;20474;-69
2023/08/16 09:13:39;;;;;;;9.30;6.05;;;20.60;99.90;;;;;;5075589;28;20024;-69
2023/08/16 09:16:04;;;;;;;10.25;5.97;;;20.60;99.90;;;;;;5074779;28;20031;-70
2023/08/16 09:18:30;;;;;;;8.57;6.15;;;20.60;99.90;;;;;;5075581;28;20080;-70
2023/08/16 09:20:59;;;;;;;7.13;5.88;;;20.50;99.90;;;;;;5075770;28;20443;-70
2023/08/16 09:23:25;;;;;;;12.32;5.88;;;20.80;99.90;;;;;;5075023;28;20052;-69
2023/08/16 09:25:51;;;;;;;9.32;6.03;;;21.00;96.30;;;;;;5075828;28;20459;-69
2023/08/16 09:28:17;;;;;;;9.68;5.80;;;21.20;99.90;;;;;;5074750;28;20036;-70
2023/08/16 09:30:43;;;;;;;9.35;5.60;;;21.40;78.40;;;;;;5074898;28;20534;-70
2023/08/16 09:33:12;;;;;;;12.43;5.60;;;21.40;77.90;;;;;;5075331;28;20036;-69
2023/08/16 09:35:44;;;;;;;7.38;5.68;;;21.30;73.80;;;;;;5075577;28;20032;-70
2023/08/16 09:38:13;;;;;;;11.45;6.40;;;20.90;90.50;;;;;;5075210;28;20078;-70
2023/08/16 09:40:47;;;;;;;9.85;6.13;;;20.80;94.80;;;;;;5074878;28;20551;-70
2023/08/16 09:43:13;;;;;;;10.52;7.32;;;20.60;99.90;;;;;;5074677;28;20027;-69
2023/08/16 09:45:40;;;;;;;9.93;6.50;;;20.60;96.50;;;;;;5073678;28;20036;-69
2023/08/16 09:48:08;;;;;;;12.55;6.78;;;20.70;99.70;;;;;;5074202;28;20039;-70
2023/08/16 09:50:35;;;;;;;10.45;6.28;;;20.80;88.70;;;;;;5074636;28;20036;-70
2023/08/16 09:53:04;;;;;;;11.80;6.93;;;21.00;81.40;;;;;;5074099;28;20053;-69
2023/08/16 09:55:33;;;;;;;11.55;6.15;;;21.30;56.70;;;;;;5074299;28;20045;-70
2023/08/16 09:58:00;;;;;;;10.90;5.47;;;21.90;23.30;;;;;;5075262;28;20027;-70
2023/08/16 10:00:27;;;;;;;7.13;5.50;;;22.80;1.00;;;;;;5074743;28;20537;-70
2023/08/16 10:02:54;;;;;;;7.85;5.15;;;22.70;1.00;;;;;;5068638;28;20731;-71
2023/08/16 10:05:20;;;;;;;10.73;5.75;;;23.00;1.00;;;;;;5066220;28;20040;-70
2023/08/16 10:07:47;;;;;;;10.27;5.38;;;22.40;1.00;;;;;;5064000;28;20032;-70
2023/08/16 10:10:14;;;;;;;11.13;5.60;;;22.50;1.00;;;;;;5069773;28;20059;-72
2023/08/16 10:12:40;;;;;;;8.25;5.32;;;22.70;1.00;;;;;;5062545;28;20383;-70
2023/08/16 10:15:06;;;;;;;7.22;5.28;;;22.50;1.00;;;;;;5053815;28;20036;-70
2023/08/16 10:17:37;;;;;;;7.80;4.80;;;22.10;1.00;;;;;;5066298;28;20031;-70
2023/08/16 10:20:05;;;;;;;8.55;5.43;;;22.40;1.00;;;;;;5067967;28;20063;-70
2023/08/16 10:22:37;;;;;;;11.23;5.32;;;22.60;1.00;;;;;;5072040;28;20071;-72
2023/08/16 10:25:12;;;;;;;8.90;5.80;;;22.70;1.00;;;;;;5061831;28;20029;-71
2023/08/16 10:27:41;;;;;;;8.13;4.90;;;23.10;1.00;;;;;;5070857;28;20486;-70
2023/08/16 10:30:11;;;;;;;9.73;5.50;;;23.20;1.00;;;;;;5056291;28;20039;-70
2023/08/16 10:32:40;;;;;;;7.15;5.03;;;23.10;1.00;;;;;;5070560;28;20032;-70
2023/08/16 10:35:07;;;;;;;7.80;4.57;;;23.00;1.00;;;;;;5069983;28;20066;-71
2023/08/16 10:37:33;;;;;;;7.85;5.35;;;23.40;1.00;;;;;;5056814;28;20463;-70
2023/08/16 10:39:59;;;;;;;9.30;5.43;;;23.30;1.00;;;;;;5072316;28;20028;-70
2023/08/16 10:42:26;;;;;;;8.52;5.07;;;22.80;1.00;;;;;;5072780;28;20033;-70
2023/08/16 10:44:52;;;;;;;10.55;5.18;;;22.90;1.00;;;;;;5069674;28;20034;-70
2023/08/16 10:47:37;;;;;;;10.00;5.20;;;22.70;1.00;;;;;;5070603;28;20389;-70
2023/08/16 10:50:03;;;;;;;8.50;5.13;;;22.60;1.00;;;;;;5069869;28;20106;-70
2023/08/16 10:52:30;;;;;;;8.02;4.90;;;22.80;1.00;;;;;;5062925;28;20060;-70
2023/08/16 10:54:59;;;;;;;11.15;4.85;;;22.90;1.00;;;;;;5068888;28;20040;-70
2023/08/16 10:57:25;;;;;;;9.50;5.10;;;23.00;1.00;;;;;;5072142;28;20103;-70
2023/08/16 11:00:04;;;;;;;10.75;5.65;;;23.00;1.00;;;;;;5072834;28;20470;-70
2023/08/16 11:02:31;;;;;;;9.02;5.00;;;22.30;1.00;;;;;;5066614;28;20139;-70
2023/08/16 11:04:58;;;;;;;10.63;5.47;;;22.30;1.00;;;;;;5062566;28;20043;-70
2023/08/16 11:07:27;;;;;;;8.85;4.82;;;22.60;1.00;;;;;;5064925;28;20036;-70
2023/08/16 11:09:52;;;;;;;8.27;4.60;;;22.30;1.00;;;;;;5069429;28;20025;-70
2023/08/16 11:12:18;;;;;;;9.45;4.32;;;22.60;1.00;;;;;;5072903;28;20434;-70
2023/08/16 11:14:45;;;;;;;10.48;4.40;;;23.10;1.00;;;;;;5067956;28;20032;-70
2023/08/16 11:17:14;;;;;;;9.80;4.32;;;23.70;1.00;;;;;;5062049;28;20028;-70
2023/08/16 11:19:41;;;;;;;6.95;3.80;;;23.80;1.00;;;;;;5068600;28;20021;-69
2023/08/16 11:22:09;;;;;;;10.70;4.00;;;23.80;1.00;;;;;;5068955;28;21415;-69
2023/08/16 11:24:34;;;;;;;7.03;4.35;;;23.60;1.00;;;;;;5072366;28;20028;-69
2023/08/16 11:27:03;;;;;;;10.73;4.82;;;23.40;1.00;;;;;;5071981;28;20394;-69
2023/08/16 11:29:28;;;;;;;9.02;4.40;;;23.20;1.00;;;;;;5072066;28;20024;-72
2023/08/16 11:31:56;;;;;;;6.55;4.15;;;22.90;1.00;;;;;;5073092;28;20050;-69
2023/08/16 11:34:22;;;;;;;7.93;5.28;;;23.00;1.00;;;;;;5073106;28;20032;-69
2023/08/16 11:36:47;;;;;;;11.13;5.00;;;22.80;1.00;;;;;;5069144;28;20468;-70
2023/08/16 11:39:13;;;;;;;6.55;4.38;;;22.90;1.00;;;;;;5075060;28;20107;-69
2023/08/16 11:41:41;;;;;;;9.35;4.03;;;22.90;1.00;;;;;;5070969;28;20470;-69
2023/08/16 11:44:07;;;;;;;8.88;4.32;;;22.90;1.00;;;;;;5070650;28;20032;-71
2023/08/16 11:46:42;;;;;;;10.32;6.22;;;23.10;1.00;;;;;;5057948;28;20040;-70
2023/08/16 11:49:08;;;;;;;10.88;5.18;;;23.30;1.00;;;;;;5064753;28;20445;-69
2023/08/16 11:51:38;;;;;;;6.22;4.50;;;23.50;1.00;;;;;;5072969;28;20053;-70
2023/08/16 11:54:04;;;;;;;7.95;4.03;;;23.50;1.00;;;;;;5076010;28;20123;-69
2023/08/16 11:56:30;;;;;;;7.28;4.03;;;23.00;1.00;;;;;;5072646;28;20052;-70
2023/08/16 11:58:56;;;;;;;5.28;3.30;;;23.30;1.00;;;;;;5072684;28;20055;-70
2023/08/16 12:01:23;;;;;;;10.48;4.15;;;23.90;1.00;;;;;;5068384;28;20021;-70
2023/08/16 12:03:49;;;;;;;11.25;4.03;;;24.50;99.90;;;;;;5076857;28;20090;-69
2023/08/16 12:06:16;;;;;;;8.23;3.60;;;24.80;99.90;;;;;;5076095;28;20064;-69
2023/08/16 12:08:50;;;;;;;7.82;3.35;;;24.80;99.90;;;;;;5068673;28;20029;-69
2023/08/16 12:11:33;;;;;;;4.30;2.78;;;24.90;99.90;;;;;;5074300;28;20031;-69
2023/08/16 12:14:00;;;;;;;9.02;3.85;;;24.80;99.90;;;;;;5076132;28;20028;-69
2023/08/16 12:16:26;;;;;;;8.27;3.97;;;24.20;99.90;;;;;;5072768;28;20167;-69
2023/08/16 12:18:52;;;;;;;6.68;3.92;;;23.90;1.00;;;;;;5065346;28;20040;-69
2023/08/16 12:21:18;;;;;;;7.88;3.63;;;24.10;99.90;;;;;;5076799;28;20029;-69
2023/08/16 12:23:43;;;;;;;8.80;3.72;;;24.50;99.90;;;;;;5079315;28;20025;-69
2023/08/16 12:26:09;;;;;;;8.13;3.80;;;24.90;99.90;;;;;;5076830;28;20409;-70
2023/08/16 12:28:35;;;;;;;8.52;3.97;;;25.00;80.60;;;;;;5073138;28;20123;-70
2023/08/16 12:31:00;;;;;;;10.23;3.92;;;25.20;99.90;;;;;;5074046;28;20028;-70
2023/08/16 12:33:26;;;;;;;7.20;3.85;;;24.80;99.90;;;;;;5076978;28;20028;-70
2023/08/16 12:35:53;;;;;;;7.45;3.30;;;24.60;99.90;;;;;;5076958;28;20387;-70
2023/08/16 12:38:19;;;;;;;8.48;3.72;;;24.70;99.90;;;;;;5078711;28;20035;-70